Time;durP1;ratioP1;P1;durP2;ratioP2;P2;SDS_P1;SDS_P2;PMS_P1;PMS_P2;Temp;Humidity;BMP_temperature;BMP_pressure;BME280_temperature;BME280_humidity;BME280_pressure;Samples;Min_cycle;Max_cycle;Signal;HPM_P1;HPM_P2
2021/12/27 00:01:49;;;;;;;5.70;2.67;;;;;;;1.83;92.03;100328.59;4974477;28;103843;-42
2021/12/27 00:04:15;;;;;;;0.70;0.63;;;;;;;1.74;92.01;100312.91;4973081;28;100960;-42
2021/12/27 00:06:40;;;;;;;5.93;2.42;;;;;;;1.77;91.90;100317.28;4974538;28;97259;-43
2021/12/27 00:09:05;;;;;;;2.50;1.65;;;;;;;1.78;91.94;100314.53;4974715;28;96630;-43
2021/12/27 00:11:30;;;;;;;3.95;2.30;;;;;;;1.81;91.31;100310.88;4975285;28;96524;-42
2021/12/27 00:13:56;;;;;;;4.97;2.40;;;;;;;1.89;91.36;100327.53;4973955;28;119195;-42
2021/12/27 00:16:21;;;;;;;4.63;0.82;;;;;;;1.89;91.52;100327.53;4974381;28;100379;-42
2021/12/27 00:18:46;;;;;;;4.60;3.17;;;;;;;1.92;91.54;100322.94;4974244;28;96543;-42
2021/12/27 00:21:12;;;;;;;1.50;1.13;;;;;;;1.80;91.79;100294.00;4973917;28;115127;-43
2021/12/27 00:23:38;;;;;;;1.55;1.00;;;;;;;1.92;91.87;100314.94;4974481;28;97445;-43
2021/12/27 00:26:03;;;;;;;6.38;3.22;;;;;;;1.83;91.77;100293.00;4974328;28;97883;-43
2021/12/27 00:28:30;;;;;;;3.63;2.13;;;;;;;1.83;91.53;100288.53;4974207;28;109669;-43
2021/12/27 00:30:56;;;;;;;11.93;1.80;;;;;;;1.85;91.50;100278.69;4976468;28;96907;-42
2021/12/27 00:33:22;;;;;;;2.47;1.02;;;;;;;1.83;92.01;100280.53;4977619;28;97926;-42
2021/12/27 00:35:48;;;;;;;3.38;2.75;;;;;;;1.97;92.60;100298.75;4977986;28;98193;-43
2021/12/27 00:38:13;;;;;;;4.75;3.25;;;;;;;1.94;91.88;100281.97;4977657;28;96573;-43
2021/12/27 00:40:39;;;;;;;4.38;2.17;;;;;;;1.88;91.97;100265.25;4977242;28;96806;-42
2021/12/27 00:43:04;;;;;;;3.83;2.35;;;;;;;1.94;92.15;100279.31;4976834;28;97908;-42
2021/12/27 00:45:30;;;;;;;3.67;2.40;;;;;;;1.99;92.09;100285.34;4977412;28;98002;-42
2021/12/27 00:47:55;;;;;;;12.45;4.53;;;;;;;1.91;92.26;100254.44;4976519;28;96545;-42
2021/12/27 00:50:21;;;;;;;1.77;1.48;;;;;;;1.91;91.43;100251.78;4977517;28;96821;-42
2021/12/27 00:52:46;;;;;;;0.85;0.75;;;;;;;2.03;92.13;100269.16;4976926;28;108423;-43
2021/12/27 00:55:13;;;;;;;3.75;1.90;;;;;;;2.00;92.15;100255.94;4977193;28;97735;-42
2021/12/27 00:57:38;;;;;;;3.75;2.55;;;;;;;1.95;92.09;100243.63;4976137;28;96574;-43
2021/12/27 01:00:13;;;;;;;5.63;1.52;;;;;;;2.06;91.91;100262.84;4977385;28;96847;-43
2021/12/27 01:02:39;;;;;;;3.42;2.63;;;;;;;2.08;92.42;100269.00;4977237;28;97487;-43
2021/12/27 01:05:05;;;;;;;3.70;2.78;;;;;;;2.04;92.40;100249.53;4977081;28;97270;-43
2021/12/27 01:07:30;;;;;;;3.30;1.75;;;;;;;1.99;91.87;100242.63;4975197;28;96909;-42
2021/12/27 01:13:02;;;;;;;2.72;1.25;;;;;;;1.99;92.27;100243.47;4975638;28;97899;-43
2021/12/27 01:17:59;;;;;;;3.40;2.07;;;;;;;2.03;92.15;100237.09;4977205;28;96853;-42
2021/12/27 01:20:25;;;;;;;1.60;1.20;;;;;;;2.18;92.59;100253.50;4975525;28;96554;-42
2021/12/27 01:22:52;;;;;;;1.52;1.30;;;;;;;2.18;92.43;100250.84;4976844;28;97874;-43
2021/12/27 01:25:18;;;;;;;2.95;1.67;;;;;;;2.15;92.23;100243.81;4976917;28;101155;-42
2021/12/27 01:27:44;;;;;;;6.05;3.13;;;;;;;2.18;92.20;100238.34;4975651;28;96681;-42
2021/12/27 01:30:12;;;;;;;1.30;1.17;;;;;;;2.19;92.72;100242.75;4977108;28;96787;-43
2021/12/27 01:32:46;;;;;;;2.60;0.93;;;;;;;2.20;92.58;100238.28;4974557;28;101147;-43
2021/12/27 01:35:12;;;;;;;2.53;1.63;;;;;;;2.22;92.42;100233.78;4975294;28;100719;-43
2021/12/27 01:37:37;;;;;;;1.23;1.08;;;;;;;2.20;92.84;100230.28;4975462;28;96577;-43
2021/12/27 01:40:04;;;;;;;2.92;1.40;;;;;;;2.23;93.71;100233.69;4976762;28;96759;-43
2021/12/27 01:42:30;;;;;;;1.67;1.27;;;;;;;2.07;93.34;100212.03;4974989;28;101234;-43
2021/12/27 01:44:55;;;;;;;1.33;1.20;;;;;;;2.15;92.99;100217.09;4976028;28;99148;-42
2021/12/27 01:47:21;;;;;;;2.70;1.70;;;;;;;2.17;93.06;100212.56;4975988;28;111985;-43
2021/12/27 01:49:46;;;;;;;2.63;2.13;;;;;;;2.28;93.13;100226.38;4977025;28;96657;-42
2021/12/27 01:52:12;;;;;;;7.90;1.98;;;;;;;2.29;93.04;100227.25;4976408;28;98079;-42
2021/12/27 01:54:37;;;;;;;4.80;2.97;;;;;;;2.23;93.05;100208.78;4976180;28;97792;-42
2021/12/27 01:57:03;;;;;;;1.80;1.20;;;;;;;2.24;93.14;100211.41;4975818;28;96970;-43
2021/12/27 01:59:28;;;;;;;1.92;1.15;;;;;;;2.36;93.02;100241.25;4974430;28;96791;-43
2021/12/27 02:01:54;;;;;;;1.92;1.25;;;;;;;2.30;92.79;100223.66;4976140;28;97965;-43
2021/12/27 02:04:20;;;;;;;4.03;2.65;;;;;;;2.28;92.79;100220.16;4974692;28;100478;-43
2021/12/27 02:06:45;;;;;;;2.55;1.77;;;;;;;2.34;92.73;100230.63;4976160;28;96617;-43
2021/12/27 02:09:10;;;;;;;1.25;1.15;;;;;;;2.20;92.83;100203.56;4976767;28;96898;-42
2021/12/27 02:11:36;;;;;;;4.30;1.88;;;;;;;2.38;92.32;100231.38;4976153;28;97889;-43
2021/12/27 02:14:04;;;;;;;3.28;1.95;;;;;;;2.33;92.70;100218.19;4976107;28;99106;-42
2021/12/27 02:16:29;;;;;;;4.00;2.67;;;;;;;2.42;92.71;100231.19;4976104;28;96483;-42
2021/12/27 02:18:55;;;;;;;3.00;1.20;;;;;;;2.34;92.39;100215.47;4976564;28;96870;-43
2021/12/27 02:21:22;;;;;;;4.20;2.95;;;;;;;2.35;92.44;100219.00;4975425;28;97475;-43
2021/12/27 02:23:50;;;;;;;2.95;2.13;;;;;;;2.45;92.26;100239.09;4974442;28;99557;-43
2021/12/27 02:26:16;;;;;;;4.82;3.05;;;;;;;2.45;92.07;100241.75;4974720;28;96645;-42
2021/12/27 02:28:41;;;;;;;3.67;1.73;;;;;;;2.47;92.41;100242.59;4974439;28;96801;-42
2021/12/27 02:31:08;;;;;;;4.05;1.98;;;;;;;2.38;91.62;100223.34;4975773;28;97486;-42
2021/12/27 02:33:37;;;;;;;4.28;2.33;;;;;;;2.46;92.06;100238.19;4974141;28;100788;-43
2021/12/27 02:36:05;;;;;;;5.97;3.17;;;;;;;2.36;91.93;100218.09;4974550;28;96616;-43
2021/12/27 02:38:32;;;;;;;4.82;2.08;;;;;;;2.38;91.90;100218.88;4974824;28;96791;-43
2021/12/27 02:40:59;;;;;;;4.68;2.50;;;;;;;2.42;91.66;100222.31;4975426;28;98072;-43
2021/12/27 02:43:30;;;;;;;4.20;2.40;;;;;;;2.46;91.77;100232.84;4973451;28;100928;-42
2021/12/27 02:45:58;;;;;;;6.60;3.47;;;;;;;2.41;92.00;100213.44;4975548;28;96566;-43
2021/12/27 02:48:28;;;;;;;4.32;2.30;;;;;;;2.43;91.57;100214.25;4974369;28;96850;-43
2021/12/27 02:50:55;;;;;;;6.15;2.55;;;;;;;2.53;91.74;100226.31;4973781;28;101076;-43
2021/12/27 02:53:22;;;;;;;10.38;3.83;;;;;;;2.42;92.31;100195.59;4973687;28;100684;-42
2021/12/27 02:55:49;;;;;;;5.70;2.92;;;;;;;2.40;92.29;100189.44;4973772;28;96840;-42
2021/12/27 02:58:14;;;;;;;6.35;2.42;;;;;;;2.41;92.49;100188.50;4975460;28;96803;-43
2021/12/27 03:00:50;;;;;;;6.32;2.97;;;;;;;2.53;91.96;100204.06;4973403;28;101429;-42
2021/12/27 03:03:16;;;;;;;7.80;3.50;;;;;;;2.44;91.97;100183.91;4975694;28;98397;-43
2021/12/27 03:05:43;;;;;;;4.15;3.05;;;;;;;2.54;92.39;100204.00;4974134;28;96528;-43
2021/12/27 03:08:13;;;;;;;3.58;2.35;;;;;;;2.55;92.15;100194.16;4974115;28;96878;-43
2021/12/27 03:10:40;;;;;;;5.25;3.28;;;;;;;2.46;92.00;100179.38;4973321;28;100981;-43
2021/12/27 03:13:06;;;;;;;6.13;3.67;;;;;;;2.59;92.04;100192.25;4973561;28;100443;-42
2021/12/27 03:15:31;;;;;;;3.20;2.38;;;;;;;2.51;92.21;100179.19;4974703;28;107964;-42
2021/12/27 03:17:56;;;;;;;5.47;2.35;;;;;;;2.44;91.76;100157.19;4974809;28;104577;-42
2021/12/27 03:20:25;;;;;;;5.22;2.58;;;;;;;2.51;92.23;100166.69;4974776;28;98783;-43
2021/12/27 03:22:51;;;;;;;4.57;3.20;;;;;;;2.55;92.54;100171.00;4973437;28;100647;-43
2021/12/27 03:25:19;;;;;;;4.07;2.75;;;;;;;2.65;92.52;100181.34;4973872;28;96569;-43
2021/12/27 03:27:45;;;;;;;5.28;2.65;;;;;;;2.50;92.56;100156.06;4974196;28;96892;-42
2021/12/27 03:30:26;;;;;;;10.18;5.03;;;;;;;2.48;92.92;100148.13;4973511;28;100861;-42
2021/12/27 03:32:53;;;;;;;4.90;2.83;;;;;;;2.59;92.63;100163.72;4973367;28;104090;-42
2021/12/27 03:35:26;;;;;;;4.55;2.65;;;;;;;2.59;92.55;100163.72;4973208;28;96532;-42
2021/12/27 03:37:54;;;;;;;8.95;3.15;;;;;;;2.72;92.03;100177.47;4973849;28;96681;-42
2021/12/27 03:40:21;;;;;;;4.53;2.13;;;;;;;2.69;92.67;100174.91;4974651;28;98000;-42
2021/12/27 03:42:50;;;;;;;4.03;2.95;;;;;;;2.62;92.64;100158.28;4974939;28;97267;-42
2021/12/27 03:45:17;;;;;;;4.40;3.30;;;;;;;2.71;92.88;100175.72;4973333;28;96709;-43
2021/12/27 03:47:43;;;;;;;7.47;2.95;;;;;;;2.64;93.09;100158.19;4973611;28;96878;-43
2021/12/27 03:50:08;;;;;;;3.97;2.25;;;;;;;2.73;93.13;100174.72;4974539;28;97715;-42
2021/12/27 03:52:34;;;;;;;5.90;3.22;;;;;;;2.65;92.75;100159.94;4974780;28;99103;-42
2021/12/27 03:54:59;;;;;;;7.82;2.08;;;;;;;2.73;92.32;100164.03;4974968;28;96517;-42
2021/12/27 03:57:25;;;;;;;4.50;3.33;;;;;;;2.78;92.50;100165.66;4974760;28;96757;-42
2021/12/27 04:00:14;;;;;;;5.97;2.92;;;;;;;2.73;93.00;100153.34;4973955;28;97992;-43
2021/12/27 04:02:37;;;;;;;5.32;2.85;;;;;;;2.80;92.82;100163.78;4974140;28;98767;-43
2021/12/27 04:05:04;;;;;;;3.50;2.13;;;;;;;2.80;93.31;100150.44;4977240;28;96663;-42
2021/12/27 04:07:33;;;;;;;3.03;2.75;;;;;;;2.86;92.74;100152.84;4976803;28;96780;-43
2021/12/27 04:09:59;;;;;;;3.80;2.58;;;;;;;2.87;92.97;100147.44;4976610;28;98823;-43
2021/12/27 04:12:24;;;;;;;8.93;3.45;;;;;;;2.81;93.13;100130.75;4977717;28;99172;-43
2021/12/27 04:14:49;;;;;;;9.07;2.97;;;;;;;2.80;93.08;100121.88;4977173;28;117513;-43
2021/12/27 04:17:14;;;;;;;4.60;3.15;;;;;;;2.92;93.20;100139.22;4977993;28;97107;-42
2021/12/27 04:19:40;;;;;;;6.15;3.05;;;;;;;2.86;92.42;100126.97;4976965;28;123873;-43
2021/12/27 04:22:05;;;;;;;4.13;2.72;;;;;;;2.86;92.59;100118.06;4977095;28;114709;-42
2021/12/27 04:24:30;;;;;;;4.93;2.65;;;;;;;2.96;93.00;100132.81;4976510;28;117543;-42
2021/12/27 04:26:55;;;;;;;5.50;1.98;;;;;;;2.98;92.80;100131.81;4977119;28;117094;-43
2021/12/27 04:29:21;;;;;;;4.50;2.60;;;;;;;2.92;93.33;100117.81;4977725;28;97830;-42
2021/12/27 04:31:46;;;;;;;4.60;4.13;;;;;;;2.99;92.92;100127.31;4977271;28;98833;-43
2021/12/27 04:34:11;;;;;;;3.83;2.70;;;;;;;2.95;92.74;100115.88;4977718;28;98076;-42
2021/12/27 04:36:37;;;;;;;7.53;3.33;;;;;;;2.89;92.94;100100.09;4977698;28;96821;-43
2021/12/27 04:39:03;;;;;;;4.88;2.90;;;;;;;3.06;92.78;100119.91;4977525;28;97828;-42
2021/12/27 04:41:28;;;;;;;4.70;2.75;;;;;;;3.05;92.81;100112.81;4976273;28;101023;-42
2021/12/27 04:43:54;;;;;;;6.32;2.70;;;;;;;3.05;93.07;100115.50;4977659;28;96693;-43
2021/12/27 04:46:19;;;;;;;5.70;2.92;;;;;;;3.00;93.21;100104.13;4977458;28;96800;-43
2021/12/27 04:48:44;;;;;;;3.75;2.95;;;;;;;3.05;93.09;100111.03;4977070;28;97423;-43
2021/12/27 04:51:10;;;;;;;5.93;3.83;;;;;;;3.02;92.84;100107.59;4977291;28;97034;-42
2021/12/27 04:53:35;;;;;;;8.52;4.13;;;;;;;3.03;92.91;100106.66;4977281;28;102079;-43
2021/12/27 04:56:00;;;;;;;4.82;2.47;;;;;;;3.03;92.91;100107.56;4977377;28;96728;-42
2021/12/27 04:58:25;;;;;;;2.83;1.45;;;;;;;3.11;92.78;100109.88;4976650;28;115502;-42
2021/12/27 05:00:53;;;;;;;6.22;1.60;;;;;;;3.07;93.55;100092.22;4975375;28;104995;-42
2021/12/27 05:03:18;;;;;;;10.35;4.50;;;;;;;3.20;93.69;100117.53;4976297;28;96649;-42
2021/12/27 05:05:46;;;;;;;8.25;3.75;;;;;;;3.10;93.37;100094.75;4976675;28;96788;-43
2021/12/27 05:08:11;;;;;;;6.72;2.85;;;;;;;3.17;93.59;100105.16;4974402;28;101059;-43
2021/12/27 05:10:37;;;;;;;4.63;2.95;;;;;;;3.23;93.70;100113.84;4975879;28;97835;-42
2021/12/27 05:13:03;;;;;;;8.73;4.13;;;;;;;3.25;93.03;100109.31;4975693;28;96613;-43
2021/12/27 05:15:29;;;;;;;5.38;3.58;;;;;;;3.16;92.72;100095.38;4974086;28;96941;-42
2021/12/27 05:17:54;;;;;;;6.38;3.75;;;;;;;3.09;93.30;100074.28;4975705;28;99366;-42
2021/12/27 05:20:19;;;;;;;13.85;4.32;;;;;;;3.22;92.82;100098.72;4975671;28;97813;-42
2021/12/27 05:22:45;;;;;;;6.22;3.70;;;;;;;3.23;92.78;100089.75;4975833;28;96803;-43
2021/12/27 05:25:11;;;;;;;7.72;3.30;;;;;;;3.16;93.25;100070.41;4975426;28;113388;-43
2021/12/27 05:27:39;;;;;;;5.28;2.60;;;;;;;3.26;93.16;100095.84;4974228;28;100771;-42
2021/12/27 05:30:05;;;;;;;8.13;3.83;;;;;;;3.28;92.92;100088.59;4974252;28;100822;-43
2021/12/27 05:32:30;;;;;;;5.55;3.22;;;;;;;3.20;93.13;100077.38;4974252;28;96630;-42
2021/12/27 05:34:56;;;;;;;6.55;4.18;;;;;;;3.24;92.99;100068.25;4975398;28;100319;-42
2021/12/27 05:37:21;;;;;;;5.32;3.00;;;;;;;3.33;92.90;100081.25;4974860;28;99398;-43
2021/12/27 05:39:48;;;;;;;9.43;4.28;;;;;;;3.36;93.13;100081.13;4975319;28;97313;-42
2021/12/27 05:42:13;;;;;;;6.85;3.45;;;;;;;3.33;93.24;100075.03;4975369;28;96540;-42
2021/12/27 05:44:39;;;;;;;8.93;3.65;;;;;;;3.38;92.78;100081.03;4975128;28;96778;-42
2021/12/27 05:47:04;;;;;;;9.02;4.30;;;;;;;3.42;93.71;100081.78;4974989;28;98761;-42
2021/12/27 05:49:30;;;;;;;10.20;3.58;;;;;;;3.47;92.98;100091.34;4975212;28;97825;-43
2021/12/27 05:51:55;;;;;;;6.03;3.33;;;;;;;3.48;93.13;100084.19;4975527;28;96734;-43
2021/12/27 05:54:21;;;;;;;4.85;3.10;;;;;;;3.44;93.55;100085.28;4975889;28;96793;-43
2021/12/27 05:56:47;;;;;;;8.70;3.85;;;;;;;3.46;93.29;100083.41;4974895;28;97872;-43
2021/12/27 05:59:13;;;;;;;7.47;4.18;;;;;;;3.43;93.15;100072.81;4973477;28;100796;-43
2021/12/27 06:01:38;;;;;;;8.93;3.58;;;;;;;3.44;92.80;100069.22;4934244;28;1194690;-43
2021/12/27 06:04:04;;;;;;;10.38;5.10;;;;;;;3.36;93.02;100053.47;4974881;28;96965;-43
2021/12/27 06:06:29;;;;;;;8.48;3.65;;;;;;;3.52;93.18;100077.75;4976111;28;98155;-43
2021/12/27 06:08:55;;;;;;;7.40;4.30;;;;;;;3.64;93.03;100087.91;4976048;28;97911;-42
2021/12/27 06:11:20;;;;;;;6.30;3.15;;;;;;;3.63;92.93;100082.63;4976131;28;96643;-42
2021/12/27 06:13:46;;;;;;;9.48;5.57;;;;;;;3.67;93.51;100078.84;4976380;28;96735;-43
2021/12/27 06:16:12;;;;;;;6.93;4.80;;;;;;;3.63;92.97;100079.97;4976132;28;98060;-43
2021/12/27 06:18:37;;;;;;;5.68;3.45;;;;;;;3.64;93.40;100069.16;4976534;28;97831;-43
2021/12/27 06:21:04;;;;;;;6.55;3.60;;;;;;;3.68;93.57;100075.25;4976263;28;96510;-43
2021/12/27 06:23:30;;;;;;;8.25;4.65;;;;;;;3.68;93.42;100068.09;4974799;28;96700;-43
2021/12/27 06:25:56;;;;;;;7.88;4.13;;;;;;;3.68;92.91;100046.66;4973335;28;101088;-43
2021/12/27 06:28:21;;;;;;;9.70;4.20;;;;;;;3.76;92.90;100065.91;4975162;28;99098;-43
2021/12/27 06:30:47;;;;;;;10.52;3.83;;;;;;;3.83;93.56;100070.03;4975940;28;96533;-43
2021/12/27 06:33:12;;;;;;;9.65;4.95;;;;;;;3.78;93.13;100058.69;4975899;28;96796;-43
2021/12/27 06:35:37;;;;;;;10.95;3.90;;;;;;;3.83;93.62;100066.50;4974935;28;117939;-42
2021/12/27 06:38:03;;;;;;;10.90;3.80;;;;;;;3.96;93.29;100090.94;4975427;28;99095;-43
2021/12/27 06:40:30;;;;;;;7.45;3.75;;;;;;;3.97;93.00;100081.94;4975901;28;96652;-43
2021/12/27 06:42:56;;;;;;;9.05;3.17;;;;;;;3.89;93.54;100066.25;4974546;28;96863;-43
2021/12/27 06:45:21;;;;;;;6.30;3.70;;;;;;;4.01;93.12;100091.59;4973876;28;100728;-43
2021/12/27 06:47:47;;;;;;;7.35;3.53;;;;;;;4.03;93.09;100090.56;4975560;28;102163;-43
2021/12/27 06:50:12;;;;;;;7.53;3.72;;;;;;;3.98;92.75;100067.59;4974749;28;107866;-43
2021/12/27 06:52:38;;;;;;;8.15;4.50;;;;;;;4.06;93.23;100084.19;4975809;28;96766;-42
2021/12/27 06:55:04;;;;;;;5.40;3.00;;;;;;;4.06;93.43;100081.50;4975487;28;97251;-42
2021/12/27 06:57:30;;;;;;;8.85;4.32;;;;;;;4.14;94.29;100090.06;4973637;28;102174;-42
2021/12/27 06:59:56;;;;;;;7.55;4.13;;;;;;;4.08;94.14;100063.56;4975364;28;96740;-42
2021/12/27 07:02:22;;;;;;;5.72;3.15;;;;;;;4.15;94.08;100069.50;4975558;28;96890;-43
2021/12/27 07:04:48;;;;;;;6.70;2.30;;;;;;;4.18;94.79;100066.66;4973761;28;101695;-43
2021/12/27 07:07:13;;;;;;;7.03;3.53;;;;;;;4.31;94.38;100083.03;4975767;28;97932;-42
2021/12/27 07:09:38;;;;;;;15.00;4.75;;;;;;;4.35;95.08;100079.25;4975606;28;96751;-42
2021/12/27 07:12:05;;;;;;;9.27;3.55;;;;;;;4.33;94.42;100062.38;4975230;28;96816;-42
2021/12/27 07:14:30;;;;;;;5.20;2.67;;;;;;;4.32;94.88;100049.94;4973151;28;101006;-42
2021/12/27 07:16:55;;;;;;;5.03;2.92;;;;;;;4.34;95.06;100050.69;4974349;28;123651;-42
2021/12/27 07:19:21;;;;;;;9.07;4.45;;;;;;;4.35;95.31;100049.78;4974592;28;113580;-42
2021/12/27 07:21:46;;;;;;;8.88;4.65;;;;;;;4.33;95.25;100043.59;4975359;28;96871;-42
2021/12/27 07:24:11;;;;;;;5.15;3.42;;;;;;;4.44;95.40;100046.63;4975066;28;100499;-42
2021/12/27 07:26:36;;;;;;;9.43;4.53;;;;;;;4.47;94.69;100054.53;4974940;28;97810;-42
2021/12/27 07:29:02;;;;;;;6.95;4.05;;;;;;;4.50;94.67;100054.38;4974427;28;113242;-42
2021/12/27 07:31:27;;;;;;;7.45;3.35;;;;;;;4.48;94.59;100056.25;4975586;28;96849;-42
2021/12/27 07:33:54;;;;;;;7.05;3.88;;;;;;;4.44;94.11;100049.31;4974705;28;99656;-43
2021/12/27 07:36:20;;;;;;;8.27;4.13;;;;;;;4.33;93.96;100028.38;4974637;28;99122;-43
2021/12/27 07:38:45;;;;;;;10.82;4.40;;;;;;;4.57;94.35;100060.31;4973128;28;96561;-43
2021/12/27 07:41:11;;;;;;;14.52;4.15;;;;;;;4.49;94.15;100044.59;4974886;28;96805;-43
2021/12/27 07:43:36;;;;;;;4.80;2.75;;;;;;;4.55;94.42;100052.31;4973248;28;100847;-43
2021/12/27 07:46:02;;;;;;;13.88;5.32;;;;;;;4.49;94.30;100044.59;4974418;28;119382;-43
2021/12/27 07:48:31;;;;;;;15.52;3.83;;;;;;;4.59;94.40;100053.91;4973663;28;96547;-42
2021/12/27 07:50:56;;;;;;;7.25;3.55;;;;;;;4.61;94.50;100060.06;4973501;28;96950;-43
2021/12/27 07:53:21;;;;;;;8.00;4.25;;;;;;;4.46;94.47;100039.41;4974375;28;99247;-42
2021/12/27 07:55:47;;;;;;;4.57;2.70;;;;;;;4.51;94.10;100049.91;4974367;28;99153;-42
2021/12/27 07:58:12;;;;;;;12.43;4.72;;;;;;;4.57;94.25;100055.78;4974965;28;97227;-43
2021/12/27 08:00:38;;;;;;;6.10;3.35;;;;;;;4.52;94.28;100043.56;4973592;28;114098;-43
2021/12/27 08:03:05;;;;;;;7.18;3.72;;;;;;;4.63;94.17;100066.22;4974287;28;97750;-43
2021/12/27 08:05:30;;;;;;;7.22;2.30;;;;;;;4.70;94.82;100063.25;4973173;28;100798;-43
2021/12/27 08:07:56;;;;;;;11.43;4.25;;;;;;;4.66;94.83;100060.72;4974137;28;112406;-43
2021/12/27 08:10:21;;;;;;;15.05;5.50;;;;;;;4.61;94.24;100041.28;4974748;28;96856;-43
2021/12/27 08:12:46;;;;;;;6.07;2.55;;;;;;;4.55;94.45;100035.38;4974294;28;104871;-43
2021/12/27 08:15:12;;;;;;;10.57;4.47;;;;;;;4.53;94.31;100026.53;4974545;28;97825;-43
2021/12/27 08:17:38;;;;;;;7.80;4.70;;;;;;;4.61;94.65;100038.63;4974642;28;96536;-43
2021/12/27 08:20:06;;;;;;;12.02;5.35;;;;;;;4.64;95.01;100041.13;4973661;28;96824;-43
2021/12/27 08:22:32;;;;;;;10.23;4.55;;;;;;;4.52;94.65;100009.56;4974013;28;99378;-43
2021/12/27 08:24:57;;;;;;;10.90;4.65;;;;;;;4.61;95.02;100021.66;4974044;28;99136;-43
2021/12/27 08:27:25;;;;;;;5.40;3.22;;;;;;;4.75;95.10;100032.56;4974330;28;97031;-43
2021/12/27 08:29:50;;;;;;;14.77;4.72;;;;;;;4.75;94.74;100029.03;4973158;28;96757;-43
2021/12/27 08:32:16;;;;;;;8.63;4.28;;;;;;;4.73;94.87;100020.19;4974333;28;97220;-43
2021/12/27 08:34:41;;;;;;;9.05;4.75;;;;;;;4.79;95.17;100039.50;4972782;28;100791;-42
2021/12/27 08:37:07;;;;;;;10.07;5.28;;;;;;;4.74;94.68;100024.56;4974635;28;96517;-43
2021/12/27 08:39:34;;;;;;;11.55;4.30;;;;;;;4.79;94.38;100027.91;4973068;28;114743;-43
2021/12/27 08:42:01;;;;;;;9.15;3.67;;;;;;;4.89;95.12;100045.28;4972561;28;101494;-43
2021/12/27 08:44:26;;;;;;;6.18;3.35;;;;;;;4.81;94.96;100012.59;4972863;28;100835;-43
2021/12/27 08:46:52;;;;;;;7.63;3.78;;;;;;;4.94;94.91;100023.56;4974418;28;96613;-43
2021/12/27 08:49:17;;;;;;;5.93;3.58;;;;;;;4.81;95.50;99997.34;4974564;28;96819;-43
2021/12/27 08:51:42;;;;;;;7.68;2.70;;;;;;;4.87;94.99;99996.19;4977018;28;97332;-43
2021/12/27 08:54:08;;;;;;;4.40;2.58;;;;;;;5.01;95.19;99995.47;4977137;28;97789;-42
2021/12/27 08:56:33;;;;;;;4.78;2.65;;;;;;;4.96;96.07;99984.97;4976475;28;112739;-42
2021/12/27 08:58:59;;;;;;;8.65;3.63;;;;;;;4.94;96.05;99973.47;4976975;28;105056;-43
2021/12/27 09:01:24;;;;;;;4.93;2.15;;;;;;;4.98;96.23;99975.03;4975948;28;125461;-43
2021/12/27 09:03:50;;;;;;;8.93;4.60;;;;;;;5.04;95.13;99990.81;4977303;28;97256;-43
2021/12/27 09:06:15;;;;;;;12.88;4.03;;;;;;;5.17;94.78;100012.47;4977681;28;96604;-43
2021/12/27 09:08:41;;;;;;;5.97;3.17;;;;;;;5.02;94.60;99998.06;4977625;28;96742;-43
2021/12/27 09:11:07;;;;;;;6.53;2.20;;;;;;;5.19;95.31;100017.78;4977064;28;98528;-43
2021/12/27 09:13:34;;;;;;;7.07;2.80;;;;;;;5.20;95.09;100020.41;4975441;28;100665;-43
2021/12/27 09:16:01;;;;;;;10.55;2.97;;;;;;;5.25;95.89;100036.25;4975355;28;96712;-43
2021/12/27 09:18:28;;;;;;;5.75;3.00;;;;;;;5.26;96.03;100038.84;4975745;28;96800;-43
2021/12/27 09:20:53;;;;;;;11.25;3.17;;;;;;;5.31;96.38;100046.66;4975241;28;100873;-43
2021/12/27 09:23:19;;;;;;;5.85;3.00;;;;;;;5.28;96.44;100038.78;4976376;28;99203;-43
2021/12/27 09:25:45;;;;;;;7.70;2.72;;;;;;;5.33;96.78;100039.41;4977186;28;96528;-43
2021/12/27 09:28:11;;;;;;;8.80;3.35;;;;;;;5.34;96.84;100046.53;4977112;28;96745;-43
2021/12/27 09:30:37;;;;;;;8.55;3.20;;;;;;;5.23;95.99;100011.31;4977064;28;97561;-43
2021/12/27 09:33:04;;;;;;;9.15;2.55;;;;;;;5.35;95.47;100026.75;4975558;28;101218;-43
2021/12/27 09:35:29;;;;;;;8.10;2.42;;;;;;;5.34;95.65;100017.00;4976931;28;96655;-43
2021/12/27 09:37:54;;;;;;;9.43;2.80;;;;;;;5.39;95.95;100027.47;4976410;28;96664;-43
2021/12/27 09:40:20;;;;;;;8.77;3.53;;;;;;;5.39;95.70;100022.97;4975595;28;110054;-43
2021/12/27 09:42:45;;;;;;;8.82;4.18;;;;;;;5.36;96.15;100012.38;4976260;28;99125;-43
2021/12/27 09:45:10;;;;;;;7.75;3.25;;;;;;;5.39;96.54;100014.91;4976600;28;96813;-43
2021/12/27 09:47:37;;;;;;;9.05;2.25;;;;;;;5.41;95.93;100013.03;4976888;28;96777;-43
2021/12/27 09:50:06;;;;;;;6.03;2.95;;;;;;;5.42;96.44;100004.00;4975076;28;100670;-43
2021/12/27 09:52:32;;;;;;;6.75;3.53;;;;;;;5.33;96.03;99985.69;4974647;28;101101;-43
2021/12/27 09:55:03;;;;;;;4.65;2.70;;;;;;;5.44;95.86;99996.72;4975105;28;96803;-43
2021/12/27 09:57:28;;;;;;;10.95;3.88;;;;;;;5.47;96.11;99993.00;4977022;28;96830;-43
2021/12/27 09:59:54;;;;;;;8.80;2.63;;;;;;;5.35;96.57;99964.16;4975670;28;97920;-42
2021/12/27 10:02:23;;;;;;;12.25;3.40;;;;;;;5.39;96.90;99968.41;4975045;28;98032;-43
2021/12/27 10:04:49;;;;;;;6.38;4.03;;;;;;;5.40;96.53;99964.75;4974489;28;96466;-43
2021/12/27 10:07:24;;;;;;;13.48;4.20;;;;;;;5.47;96.13;99985.81;4976277;28;96721;-43
2021/12/27 10:09:55;;;;;;;10.32;4.03;;;;;;;5.54;96.13;99989.91;4975736;28;98878;-42
2021/12/27 10:12:24;;;;;;;10.80;3.95;;;;;;;5.43;96.33;99967.25;4974492;28;100992;-43
2021/12/27 10:14:57;;;;;;;7.25;3.53;;;;;;;5.48;96.09;99976.81;4974857;28;96505;-43
2021/12/27 10:17:23;;;;;;;5.25;2.78;;;;;;;5.53;96.12;99985.50;4974617;28;96764;-42
2021/12/27 10:19:50;;;;;;;14.70;5.45;;;;;;;5.58;96.00;99987.03;4974216;28;101169;-43
2021/12/27 10:22:16;;;;;;;10.43;4.28;;;;;;;5.47;96.43;99969.69;4974785;28;100720;-43
2021/12/27 10:24:42;;;;;;;8.40;4.15;;;;;;;5.58;95.78;99979.88;4974749;28;96541;-43
2021/12/27 10:27:07;;;;;;;11.57;3.90;;;;;;;5.60;96.60;99987.81;4976176;28;96761;-43
2021/12/27 10:29:35;;;;;;;9.52;4.20;;;;;;;5.66;96.32;99991.06;4975280;28;97717;-43
2021/12/27 10:32:06;;;;;;;15.10;4.55;;;;;;;5.70;95.91;99986.38;4973870;28;100832;-43
2021/12/27 10:34:38;;;;;;;9.87;3.67;;;;;;;5.70;96.00;99979.19;4975838;28;96732;-42
2021/12/27 10:37:07;;;;;;;8.63;3.53;;;;;;;5.75;96.45;99995.06;4974550;28;96774;-43
2021/12/27 10:39:54;;;;;;;19.75;4.10;;;;;;;5.79;96.18;99985.84;4975427;28;99497;-43
2021/12/27 10:42:30;;;;;;;15.85;3.95;;;;;;;5.70;95.84;99976.50;4975232;28;97856;-43
2021/12/27 10:44:59;;;;;;;10.38;3.28;;;;;;;5.67;96.52;99952.50;4974166;28;96657;-43
2021/12/27 10:47:33;;;;;;;10.00;3.58;;;;;;;5.84;96.30;99973.06;4976109;28;96720;-43
2021/12/27 10:50:03;;;;;;;8.13;3.22;;;;;;;5.78;95.86;99962.63;4974173;28;101085;-43
2021/12/27 10:52:47;;;;;;;5.30;2.42;;;;;;;5.90;95.85;99963.75;4973905;28;100781;-43
2021/12/27 10:55:14;;;;;;;7.78;3.30;;;;;;;5.93;96.04;99977.91;4975103;28;96477;-43
2021/12/27 10:57:40;;;;;;;6.10;2.35;;;;;;;5.79;95.92;99948.22;4974230;28;96725;-43
2021/12/27 11:00:26;;;;;;;10.95;3.08;;;;;;;5.97;95.92;99965.19;4974715;28;98111;-43
2021/12/27 11:02:51;;;;;;;7.47;2.05;;;;;;;5.95;96.07;99954.50;4975342;28;97858;-43
2021/12/27 11:05:23;;;;;;;10.52;3.97;;;;;;;5.98;95.88;99960.66;4975382;28;96447;-43
2021/12/27 11:07:49;;;;;;;6.50;3.05;;;;;;;6.01;95.76;99950.63;4975690;28;96546;-43
2021/12/27 11:10:14;;;;;;;8.18;2.95;;;;;;;6.06;95.68;99947.69;4973671;28;100753;-43
2021/12/27 11:12:39;;;;;;;10.60;3.17;;;;;;;6.06;96.19;99943.16;4974899;28;99461;-43
2021/12/27 11:15:09;;;;;;;4.68;2.58;;;;;;;6.06;96.06;99947.69;4975295;28;96454;-43
2021/12/27 11:17:35;;;;;;;7.72;3.17;;;;;;;6.09;96.82;99936.72;4975272;28;96712;-43
2021/12/27 11:20:00;;;;;;;9.68;3.58;;;;;;;6.09;95.88;99924.16;4974395;28;97346;-42
2021/12/27 11:22:27;;;;;;;9.50;3.40;;;;;;;6.06;95.95;99918.09;4975274;28;97245;-43
2021/12/27 11:24:53;;;;;;;8.30;3.20;;;;;;;6.00;95.97;99903.19;4975616;28;96589;-43
2021/12/27 11:27:18;;;;;;;10.43;4.28;;;;;;;6.09;96.18;99912.53;4975314;28;96783;-42
2021/12/27 11:30:09;;;;;;;8.18;3.15;;;;;;;6.11;95.74;99913.31;4974849;28;99285;-43
2021/12/27 11:32:36;;;;;;;6.18;2.25;;;;;;;6.14;95.83;99921.19;4973496;28;100904;-43
2021/12/27 11:35:09;;;;;;;9.25;3.78;;;;;;;6.08;95.97;99908.13;4973904;28;96700;-43